createdAt,value
2022-12-28T00:03:49.235Z,101095.06
2022-12-28T00:08:55.700Z,101089.78
2022-12-28T00:13:59.427Z,101087.97
2022-12-28T00:19:05.323Z,101086.81
2022-12-28T00:24:08.194Z,101084.13
2022-12-28T00:29:09.927Z,101090.59
2022-12-28T00:34:12.316Z,101093.84
2022-12-28T00:39:15.606Z,101087.94
2022-12-28T00:44:17.270Z,101093.53
2022-12-28T00:49:18.936Z,101088.59
2022-12-28T00:54:20.545Z,101084.84
2022-12-28T00:59:22.132Z,101097.78
2022-12-28T01:04:23.797Z,101098.44
2022-12-28T01:09:25.424Z,101088.13
2022-12-28T01:14:27.088Z,101084.47
2022-12-28T01:19:28.755Z,101085.56
2022-12-28T01:24:33.106Z,101085.25
2022-12-28T01:29:35.175Z,101078.56
2022-12-28T01:34:36.838Z,101084.16
2022-12-28T01:39:38.685Z,101080.00
2022-12-28T01:44:43.762Z,101064.28
2022-12-28T01:49:51.683Z,101076.34
2022-12-28T01:55:00.963Z,101069.66
2022-12-28T02:00:11.645Z,101060.00
2022-12-28T02:05:22.636Z,101056.31
2022-12-28T02:10:40.637Z,101054.53
2022-12-28T02:15:47.572Z,101064.53
2022-12-28T02:21:10.269Z,101046.00
2022-12-28T02:26:29.554Z,101025.34
2022-12-28T02:32:08.777Z,101025.34
2022-12-28T02:37:19.453Z,101007.81
2022-12-28T02:42:24.305Z,100996.53
2022-12-28T02:47:44.753Z,100984.94
2022-12-28T02:53:03.698Z,100979.75
2022-12-28T02:58:35.781Z,100975.66
2022-12-28T03:03:57.505Z,100973.00
2022-12-28T03:09:26.094Z,100966.75
2022-12-28T03:14:40.987Z,100957.50
2022-12-28T03:20:16.040Z,100944.19
2022-12-28T03:25:41.161Z,100934.28
2022-12-28T03:31:06.429Z,100931.81
2022-12-28T03:36:27.160Z,100932.03
2022-12-28T03:41:34.774Z,100932.03
2022-12-28T03:47:00.430Z,100932.03
2022-12-28T03:52:03.401Z,100920.31
2022-12-28T03:57:05.451Z,100929.03
2022-12-28T04:02:12.235Z,100919.88
2022-12-28T04:07:15.480Z,100910.78
2022-12-28T04:12:17.119Z,100904.97
2022-12-28T04:17:39.016Z,100894.44
2022-12-28T04:22:40.625Z,100886.25
2022-12-28T04:27:43.396Z,100879.38
2022-12-28T04:33:01.140Z,100873.03
2022-12-28T04:38:03.408Z,100872.09
2022-12-28T04:43:05.187Z,100871.66
2022-12-28T04:48:06.798Z,100878.75
2022-12-28T04:53:08.456Z,100871.72
2022-12-28T04:58:10.062Z,100861.09
2022-12-28T05:03:11.679Z,100858.53
2022-12-28T05:08:14.425Z,100844.97
2022-12-28T05:13:16.051Z,100834.81
2022-12-28T05:18:17.850Z,100831.47
2022-12-28T05:23:19.471Z,100831.88
2022-12-28T05:28:21.130Z,100828.56
2022-12-28T05:33:22.912Z,100832.53
2022-12-28T05:38:24.558Z,100819.22
2022-12-28T05:43:26.390Z,100828.44
2022-12-28T05:48:31.778Z,100828.53
2022-12-28T05:53:33.886Z,100826.69
2022-12-28T05:58:35.553Z,100823.28
2022-12-28T06:03:38.168Z,100829.50
2022-12-28T06:08:40.961Z,100833.13
2022-12-28T06:13:42.907Z,100825.75
2022-12-28T06:18:45.497Z,100831.44
2022-12-28T06:23:47.809Z,100827.34
2022-12-28T06:28:49.827Z,100832.59
2022-12-28T06:33:57.190Z,100830.53
2022-12-28T06:39:01.360Z,100824.34
2022-12-28T06:44:07.199Z,100827.78
2022-12-28T06:49:09.146Z,100829.28
2022-12-28T06:54:11.323Z,100822.84
2022-12-28T06:59:12.936Z,100829.16
2022-12-28T07:04:14.777Z,100817.25
2022-12-28T07:09:16.941Z,100819.22
2022-12-28T07:14:19.032Z,100814.72
2022-12-28T07:19:20.633Z,100806.78
2022-12-28T07:24:22.423Z,100793.66
2022-12-28T07:29:24.719Z,100788.28
2022-12-28T07:34:26.459Z,100781.06
2022-12-28T07:39:28.412Z,100784.16
2022-12-28T07:44:31.451Z,100800.56
2022-12-28T07:49:35.808Z,100794.09
2022-12-28T07:54:37.403Z,100805.56
2022-12-28T07:59:39.173Z,100819.06
2022-12-28T08:04:40.796Z,100812.59
2022-12-28T08:09:42.385Z,100803.88
2022-12-28T08:14:43.994Z,100804.88
2022-12-28T08:19:45.583Z,100802.28
2022-12-28T08:24:47.161Z,100807.91
2022-12-28T08:29:49.062Z,100811.66
2022-12-28T08:34:50.638Z,100815.63
2022-12-28T08:39:52.242Z,100828.91
2022-12-28T08:44:53.852Z,100847.09
2022-12-28T08:49:55.458Z,100834.56
2022-12-28T08:54:57.073Z,100831.22
2022-12-28T08:59:58.664Z,100848.47
2022-12-28T09:05:00.276Z,100849.81
2022-12-28T09:10:01.992Z,100834.13
2022-12-28T09:15:03.871Z,100831.44
2022-12-28T09:20:06.078Z,100835.78
2022-12-28T09:25:07.843Z,100824.09
2022-12-28T09:30:09.859Z,100832.66
2022-12-28T09:35:11.456Z,100819.63
2022-12-28T09:40:13.112Z,100808.38
2022-12-28T09:45:26.642Z,100815.31
2022-12-28T09:50:35.025Z,100822.16
2022-12-28T09:55:39.832Z,100820.88
2022-12-28T10:00:49.413Z,100804.28
2022-12-28T10:05:51.778Z,100803.75
2022-12-28T10:10:59.492Z,100790.63
2022-12-28T10:16:01.330Z,100779.91
2022-12-28T10:21:04.995Z,100772.84
2022-12-28T10:26:06.914Z,100766.19
2022-12-28T10:31:11.200Z,100759.91
2022-12-28T10:36:15.572Z,100751.91
2022-12-28T10:41:20.791Z,100744.97
2022-12-28T10:46:24.292Z,100732.56
2022-12-28T10:51:28.420Z,100729.84
2022-12-28T10:56:31.936Z,100726.53
2022-12-28T11:01:33.733Z,100722.47
2022-12-28T11:06:50.613Z,100733.53
2022-12-28T11:11:55.446Z,100701.72
2022-12-28T11:16:57.226Z,100684.34
2022-12-28T11:21:58.898Z,100679.13
2022-12-28T11:27:00.488Z,100666.91
2022-12-28T11:32:16.131Z,100664.88
2022-12-28T11:37:18.003Z,100642.53
2022-12-28T11:42:41.940Z,100624.16
2022-12-28T11:47:45.671Z,100628.50
2022-12-28T11:52:50.118Z,100619.63
2022-12-28T11:57:52.062Z,100601.81
2022-12-28T12:03:01.310Z,100601.41
2022-12-28T12:08:23.232Z,100593.75
2022-12-28T12:13:27.963Z,100581.91
2022-12-28T12:18:30.602Z,100574.22
2022-12-28T12:23:40.428Z,100570.56
2022-12-28T12:28:51.498Z,100564.91
2022-12-28T12:34:01.658Z,100554.38
2022-12-28T12:39:29.603Z,100548.59
2022-12-28T12:44:57.737Z,100543.16
2022-12-28T12:50:02.590Z,100535.38
2022-12-28T12:55:04.180Z,100524.91
2022-12-28T13:00:16.623Z,100519.28
2022-12-28T13:05:26.796Z,100510.63
2022-12-28T13:10:40.674Z,100515.38
2022-12-28T13:15:44.056Z,100510.44
2022-12-28T13:21:01.129Z,100489.66
2022-12-28T13:26:03.364Z,100489.72
2022-12-28T13:31:07.865Z,100496.72
2022-12-28T13:36:09.597Z,100495.28
2022-12-28T13:41:21.526Z,100481.50
2022-12-28T13:46:24.746Z,100473.00
2022-12-28T13:51:26.796Z,100465.50
2022-12-28T13:56:31.256Z,100468.53
2022-12-28T14:01:40.812Z,100445.63
2022-12-28T14:06:44.163Z,100447.09
2022-12-28T14:11:46.360Z,100454.91
2022-12-28T14:16:49.330Z,100450.25
2022-12-28T14:21:51.453Z,100448.16
2022-12-28T14:26:59.690Z,100442.56
2022-12-28T14:32:04.434Z,100435.56
2022-12-28T14:37:09.847Z,100441.75
2022-12-28T14:42:22.813Z,100429.41
2022-12-28T14:47:44.807Z,100426.47
2022-12-28T14:52:51.144Z,100431.09
2022-12-28T14:58:04.859Z,100422.31
2022-12-28T15:03:21.871Z,100425.09
2022-12-28T15:08:23.538Z,100417.00
2022-12-28T15:13:26.620Z,100416.66
2022-12-28T15:18:30.846Z,100408.56
2022-12-28T15:23:32.562Z,100415.56
2022-12-28T15:28:35.963Z,100414.03
2022-12-28T15:33:37.618Z,100414.47
2022-12-28T15:38:39.309Z,100410.03
2022-12-28T15:43:40.948Z,100411.31
2022-12-28T15:48:47.468Z,100416.84
2022-12-28T15:53:49.421Z,100409.81
2022-12-28T15:58:53.864Z,100403.72
2022-12-28T16:03:57.844Z,100409.41
2022-12-28T16:09:01.302Z,100402.50
2022-12-28T16:14:06.043Z,100401.38
2022-12-28T16:19:12.542Z,100403.00
2022-12-28T16:24:14.166Z,100401.38
2022-12-28T16:29:16.197Z,100396.47
2022-12-28T16:34:17.847Z,100401.94
2022-12-28T16:39:20.203Z,100402.09
2022-12-28T16:44:23.604Z,100404.63
2022-12-28T16:49:26.795Z,100402.72
2022-12-28T16:54:28.483Z,100399.16
2022-12-28T16:59:30.159Z,100390.78
2022-12-28T17:04:31.746Z,100394.78
2022-12-28T17:09:33.575Z,100388.66
2022-12-28T17:14:38.044Z,100391.91
2022-12-28T17:19:39.910Z,100386.09
2022-12-28T17:24:41.676Z,100392.13
2022-12-28T17:29:43.300Z,100395.00
2022-12-28T17:34:45.237Z,100392.78
2022-12-28T17:39:47.040Z,100376.00
2022-12-28T17:44:48.753Z,100372.44
2022-12-28T17:49:50.406Z,100372.44
2022-12-28T17:54:52.252Z,100352.28
2022-12-28T17:59:53.895Z,100353.56
2022-12-28T18:04:55.493Z,100336.50
2022-12-28T18:09:57.084Z,100326.25
2022-12-28T18:14:58.696Z,100326.78
2022-12-28T18:20:00.315Z,100321.78
2022-12-28T18:25:01.930Z,100336.88
2022-12-28T18:30:04.039Z,100337.16
2022-12-28T18:35:06.280Z,100332.66
2022-12-28T18:40:08.769Z,100323.59
2022-12-28T18:45:10.979Z,100321.63
2022-12-28T18:50:12.578Z,100321.22
2022-12-28T18:55:15.005Z,100318.44
2022-12-28T19:00:16.998Z,100311.16
2022-12-28T19:05:18.600Z,100317.38
2022-12-28T19:10:21.210Z,100308.69
2022-12-28T19:15:22.980Z,100310.06
2022-12-28T19:20:24.763Z,100303.88
2022-12-28T19:25:26.567Z,100311.00
2022-12-28T19:30:28.368Z,100302.47
2022-12-28T19:35:29.947Z,100290.44
2022-12-28T19:40:31.891Z,100276.34
2022-12-28T19:45:33.564Z,100287.81
2022-12-28T19:50:35.753Z,100289.88
2022-12-28T19:55:37.380Z,100292.59
2022-12-28T20:00:39.049Z,100280.75
2022-12-28T20:05:40.921Z,100274.69
2022-12-28T20:10:42.529Z,100277.59
2022-12-28T20:15:44.176Z,100265.69
2022-12-28T20:21:17.908Z,100272.03
2022-12-28T20:26:07.802Z,100275.91
2022-12-28T20:31:12.556Z,100274.63
2022-12-28T20:36:18.704Z,100280.78
2022-12-28T20:41:41.609Z,100273.97
2022-12-28T20:46:44.109Z,100264.06
2022-12-28T20:51:47.771Z,100259.34
2022-12-28T20:56:54.824Z,100247.66
2022-12-28T21:01:57.806Z,100248.56
2022-12-28T21:06:59.532Z,100247.09
2022-12-28T21:12:02.368Z,100244.41
2022-12-28T21:17:03.973Z,100241.00
2022-12-28T21:22:05.559Z,100243.69
2022-12-28T21:27:07.185Z,100239.41
2022-12-28T21:32:09.523Z,100245.25
2022-12-28T21:37:30.231Z,100227.28
2022-12-28T21:42:31.904Z,100225.41
2022-12-28T21:47:34.680Z,100223.47
2022-12-28T21:52:38.097Z,100226.34
2022-12-28T21:57:39.974Z,100222.25
2022-12-28T22:03:00.258Z,100219.53
2022-12-28T22:08:21.837Z,100213.31
2022-12-28T22:13:23.585Z,100208.50
2022-12-28T22:23:47.461Z,100227.75
2022-12-28T22:28:49.122Z,100212.56
2022-12-28T22:33:51.578Z,100213.25
2022-12-28T22:38:55.131Z,100203.25
2022-12-28T22:43:56.801Z,100211.16
2022-12-28T22:48:58.439Z,100206.25
2022-12-28T22:54:00.078Z,100199.84
2022-12-28T22:59:04.920Z,100192.41
2022-12-28T23:04:07.778Z,100170.78
2022-12-28T23:09:09.590Z,100182.09
2022-12-28T23:14:39.633Z,100178.00
2022-12-28T23:20:04.486Z,100154.06
2022-12-28T23:25:24.970Z,100158.31
2022-12-28T23:30:28.200Z,100164.59
2022-12-28T23:35:29.822Z,100159.16
2022-12-28T23:40:31.636Z,100172.13
2022-12-28T23:45:34.828Z,100165.13
2022-12-28T23:50:36.447Z,100171.63
2022-12-28T23:55:38.043Z,100177.34
